ブエノスアイレス/エセイサ の空港の天気 - METARとTAF

エセイサ国際空港 ( SAEZ / EZE ) - アルゼンチン ブエノスアイレス州、Ezeiza
飛行場実況気象(Metar)
観測時間05/28 19:00 ART (05/28 22:00 UTC)
風向・風速東 1m/s
視程10km以上
天気現象
なし
気温9℃
湿度87%
気圧1012hPa
METARSAEZ 282200Z 08002KT CAVOK 09/07 Q1012 NOSIG RMK PP000
過去の天気等 Google飛行場航空写真 Wunderground天気予報

過去48時間のMETAR

飛行場予報(TAF)
発表時間: 5/28 14:00 ART (5/28 17:00 UTC)
予報対象時間: 28日15時 ART ~ 29日15時 ART
風向・風速東北東 3m/s
視程10km以上
全天の4割程度の雲 雲底高度 760m
全天の8割程度の雲 雲底高度 3050m
29日0時 ART から 確率 40% で
風向・風速不定 1m/s
視程5000m
天気現象もや
29日4時 ART ~ 29日7時 ART に徐々に
風向・風速南南東 6m/s
視程10km以上
なし
TAF SAEZ 281700Z 2818/2918 07005KT 9999 SCT025 BKN100 TX14/2818Z TN04/2910Z
PROB40 2903/2907 VRB02KT 5000 BR
BECMG 2907/2910 16012KT CAVOK